Time;durP1;ratioP1;P1;durP2;ratioP2;P2;SDS_P1;SDS_P2;PMS_P1;PMS_P2;Temp;Humidity;BMP_temperature;BMP_pressure;BME280_temperature;BME280_humidity;BME280_pressure;Samples;Min_cycle;Max_cycle;Signal;HPM_P1;HPM_P2
2023/09/04 00:00:57;;;;;;;8.65;3.13;;;13.00;99.90;;;;;;5042331;28;20128;-49
2023/09/04 00:03:24;;;;;;;5.07;2.95;;;12.90;99.90;;;;;;5041630;28;20385;-50
2023/09/04 00:05:50;;;;;;;4.00;3.17;;;12.80;99.90;;;;;;5042725;28;20072;-46
2023/09/04 00:08:16;;;;;;;4.20;3.10;;;12.80;99.90;;;;;;5024246;28;20045;-47
2023/09/04 00:10:42;;;;;;;2.85;2.55;;;12.80;99.90;;;;;;5042572;28;20057;-49
2023/09/04 00:13:08;;;;;;;2.10;1.90;;;12.80;99.90;;;;;;5024178;28;20471;-47
2023/09/04 00:15:33;;;;;;;2.00;1.40;;;12.70;99.90;;;;;;5042712;28;20247;-50
2023/09/04 00:17:59;;;;;;;2.55;1.80;;;12.70;99.90;;;;;;5023907;28;20053;-46
2023/09/04 00:20:25;;;;;;;1.80;1.60;;;12.70;99.90;;;;;;5042198;28;20134;-46
2023/09/04 00:22:50;;;;;;;1.98;1.77;;;12.60;99.90;;;;;;5023691;28;20049;-46
2023/09/04 00:25:16;;;;;;;2.40;2.20;;;12.60;99.90;;;;;;5024081;28;20550;-47
2023/09/04 00:27:42;;;;;;;17.88;2.55;;;12.60;99.90;;;;;;5042707;28;20041;-47
2023/09/04 00:30:08;;;;;;;2.50;1.80;;;12.60;99.90;;;;;;5046209;28;20080;-48
2023/09/04 00:32:34;;;;;;;2.30;2.10;;;12.60;99.90;;;;;;5027862;28;20609;-48
2023/09/04 00:34:59;;;;;;;2.10;1.90;;;12.70;99.90;;;;;;5027171;28;20036;-46
2023/09/04 00:37:25;;;;;;;1.98;1.77;;;12.60;99.90;;;;;;5045269;28;20041;-46
2023/09/04 00:39:51;;;;;;;2.20;1.90;;;12.70;99.90;;;;;;5046035;28;20045;-46
2023/09/04 00:42:16;;;;;;;2.47;2.03;;;12.60;99.90;;;;;;5045590;28;20047;-48
2023/09/04 00:44:47;;;;;;;3.08;1.98;;;12.60;99.90;;;;;;5044720;28;20120;-49
2023/09/04 00:47:14;;;;;;;3.72;1.90;;;12.60;99.90;;;;;;5022712;28;20403;-48
2023/09/04 00:49:42;;;;;;;7.35;2.10;;;12.50;99.90;;;;;;5027205;28;20431;-46
2023/09/04 00:52:10;;;;;;;2.38;1.27;;;12.50;99.90;;;;;;5026880;28;20049;-49
2023/09/04 00:54:36;;;;;;;2.10;1.90;;;12.40;99.90;;;;;;5044897;28;20087;-47
2023/09/04 00:57:04;;;;;;;2.60;2.40;;;12.50;99.90;;;;;;5027413;28;20128;-49
2023/09/04 00:59:29;;;;;;;4.13;1.98;;;12.50;99.90;;;;;;5027175;28;20045;-49
2023/09/04 01:01:58;;;;;;;6.07;1.58;;;12.50;99.90;;;;;;5044987;28;20033;-51
2023/09/04 01:04:24;;;;;;;1.63;1.45;;;12.40;99.90;;;;;;5026578;28;20048;-47
2023/09/04 01:06:49;;;;;;;2.35;1.63;;;12.40;99.90;;;;;;5045307;28;20053;-48
2023/09/04 01:09:16;;;;;;;3.67;2.03;;;12.30;99.90;;;;;;5026978;28;20053;-47
2023/09/04 01:12:10;;;;;;;3.25;2.08;;;12.20;99.90;;;;;;5026976;28;20072;-47
2023/09/04 01:14:35;;;;;;;2.70;1.88;;;12.20;99.90;;;;;;5007523;28;20053;-50
2023/09/04 01:17:02;;;;;;;3.33;2.42;;;12.20;99.90;;;;;;5045112;28;20040;-49
2023/09/04 01:19:28;;;;;;;4.05;2.40;;;12.20;99.90;;;;;;5044795;28;20045;-47
2023/09/04 01:21:53;;;;;;;2.85;2.55;;;12.20;99.90;;;;;;5026543;28;20375;-49
2023/09/04 01:24:19;;;;;;;3.78;3.42;;;12.20;99.90;;;;;;5026285;28;20033;-46
2023/09/04 01:27:03;;;;;;;3.10;2.80;;;12.20;99.90;;;;;;5045153;28;20143;-48
2023/09/04 01:29:49;;;;;;;4.50;2.13;;;12.20;99.90;;;;;;5031756;28;20049;-46
2023/09/04 01:32:31;;;;;;;4.97;4.55;;;12.20;99.90;;;;;;5026384;28;20283;-46
2023/09/04 01:34:59;;;;;;;3.50;3.20;;;12.20;99.90;;;;;;5010537;28;20230;-47
2023/09/04 01:37:26;;;;;;;4.85;4.40;;;12.20;99.90;;;;;;5043726;28;20043;-48
2023/09/04 01:39:53;;;;;;;6.25;5.75;;;12.30;99.90;;;;;;5043582;28;20388;-49
2023/09/04 01:42:19;;;;;;;5.32;4.50;;;12.30;99.90;;;;;;5044540;28;20049;-46
2023/09/04 01:44:44;;;;;;;4.20;3.80;;;12.30;99.90;;;;;;5043616;28;20351;-47
2023/09/04 01:47:10;;;;;;;5.10;2.78;;;12.30;99.90;;;;;;5019078;28;20095;-46
2023/09/04 01:49:35;;;;;;;3.25;2.92;;;12.30;99.90;;;;;;5044546;28;20623;-48
2023/09/04 01:52:02;;;;;;;2.72;2.45;;;12.20;99.90;;;;;;5009846;28;20052;-47
2023/09/04 01:54:28;;;;;;;5.22;3.00;;;12.10;99.90;;;;;;5025313;28;20500;-47
2023/09/04 01:56:54;;;;;;;4.65;3.58;;;12.10;99.90;;;;;;5009582;28;20037;-49
2023/09/04 01:59:19;;;;;;;3.70;2.65;;;12.00;99.90;;;;;;5026240;28;20048;-46
2023/09/04 02:01:45;;;;;;;6.07;3.17;;;11.90;99.90;;;;;;5043631;28;20051;-46
2023/09/04 02:04:11;;;;;;;3.35;3.05;;;11.90;99.90;;;;;;5042632;28;20308;-46
2023/09/04 02:06:36;;;;;;;3.42;2.53;;;11.90;99.90;;;;;;5043308;28;20561;-46
2023/09/04 02:09:04;;;;;;;2.28;2.05;;;12.00;99.90;;;;;;5025584;28;20143;-49
2023/09/04 02:11:30;;;;;;;2.70;1.60;;;11.90;99.90;;;;;;5025766;28;20545;-49
2023/09/04 02:13:55;;;;;;;2.65;2.13;;;11.90;99.90;;;;;;5025200;28;20045;-48
2023/09/04 02:16:22;;;;;;;2.20;2.00;;;11.90;99.90;;;;;;5025785;28;20190;-48
2023/09/04 02:18:48;;;;;;;2.50;2.10;;;11.80;99.90;;;;;;5043860;28;20460;-50
2023/09/04 02:21:14;;;;;;;4.47;3.03;;;11.80;99.90;;;;;;5025800;28;20131;-49
2023/09/04 02:23:40;;;;;;;2.53;2.33;;;11.80;99.90;;;;;;5042963;28;20614;-49
2023/09/04 02:26:06;;;;;;;3.83;2.90;;;11.80;99.90;;;;;;5043736;28;20033;-46
2023/09/04 02:28:31;;;;;;;4.50;4.10;;;11.80;99.90;;;;;;5043300;28;20041;-48
2023/09/04 02:30:57;;;;;;;3.97;3.13;;;11.80;99.90;;;;;;5025747;28;20057;-50
2023/09/04 02:33:23;;;;;;;4.90;4.40;;;11.80;99.90;;;;;;5043177;28;20474;-47
2023/09/04 02:35:49;;;;;;;5.57;4.50;;;11.80;99.90;;;;;;5043741;28;20187;-46
2023/09/04 02:38:14;;;;;;;4.90;3.95;;;11.90;99.90;;;;;;5025271;28;20049;-49
2023/09/04 02:40:40;;;;;;;5.22;4.65;;;11.90;99.90;;;;;;5025259;28;20133;-46
2023/09/04 02:43:06;;;;;;;4.72;3.75;;;11.80;99.90;;;;;;5024715;28;20781;-47
2023/09/04 02:45:33;;;;;;;5.07;3.80;;;11.80;99.90;;;;;;5008684;28;20041;-46
2023/09/04 02:47:58;;;;;;;4.47;3.00;;;11.90;99.90;;;;;;5035911;28;20053;-47
2023/09/04 02:50:24;;;;;;;6.15;3.10;;;11.80;99.90;;;;;;5024775;28;20418;-50
2023/09/04 02:52:49;;;;;;;3.67;2.45;;;11.80;99.90;;;;;;5024452;28;20087;-46
2023/09/04 02:55:15;;;;;;;3.13;2.83;;;11.80;99.90;;;;;;5043150;28;20072;-49
2023/09/04 02:57:40;;;;;;;5.13;3.38;;;11.70;99.90;;;;;;5043498;28;20364;-49
2023/09/04 03:00:07;;;;;;;4.30;2.60;;;11.70;99.90;;;;;;5043081;28;20037;-46
2023/09/04 03:02:36;;;;;;;2.47;2.08;;;11.60;99.90;;;;;;5042737;28;20041;-45
2023/09/04 03:05:01;;;;;;;4.25;2.78;;;11.60;99.90;;;;;;5042660;28;20083;-45
2023/09/04 03:07:27;;;;;;;6.05;4.00;;;11.60;99.90;;;;;;5043036;28;20076;-45
2023/09/04 03:09:57;;;;;;;6.60;3.58;;;11.60;99.90;;;;;;5042792;28;20578;-46
2023/09/04 03:12:29;;;;;;;4.50;3.03;;;11.60;99.90;;;;;;5042788;28;20047;-45
2023/09/04 03:14:59;;;;;;;2.83;2.35;;;11.60;99.90;;;;;;5024850;28;20095;-47
2023/09/04 03:17:25;;;;;;;2.72;2.53;;;11.60;99.90;;;;;;5042471;28;20091;-45
2023/09/04 03:19:53;;;;;;;4.55;2.88;;;11.60;99.90;;;;;;5025305;28;20052;-46
2023/09/04 03:22:20;;;;;;;5.28;2.75;;;11.60;99.90;;;;;;5042521;28;20254;-48
2023/09/04 03:24:46;;;;;;;5.47;3.42;;;11.60;99.90;;;;;;5025006;28;20450;-45
2023/09/04 03:27:11;;;;;;;3.47;3.17;;;11.60;99.90;;;;;;5024868;28;20049;-45
2023/09/04 03:29:37;;;;;;;4.60;3.17;;;11.50;99.90;;;;;;5024904;28;20048;-46
2023/09/04 03:32:03;;;;;;;4.65;4.25;;;11.50;99.90;;;;;;5008291;28;20063;-46
2023/09/04 03:34:29;;;;;;;3.40;3.10;;;11.50;99.90;;;;;;5024148;28;20053;-47
2023/09/04 03:36:55;;;;;;;3.17;2.63;;;11.50;99.90;;;;;;5043087;28;20113;-45
2023/09/04 03:39:21;;;;;;;3.10;2.60;;;11.50;99.90;;;;;;5024299;28;20076;-45
2023/09/04 03:41:47;;;;;;;4.00;2.97;;;11.40;99.90;;;;;;5042700;28;20201;-45
2023/09/04 03:44:14;;;;;;;4.07;2.45;;;11.50;99.90;;;;;;5041618;28;20583;-46
2023/09/04 03:46:40;;;;;;;4.35;2.83;;;11.40;99.90;;;;;;5015302;28;20042;-49
2023/09/04 03:49:06;;;;;;;6.70;3.10;;;11.40;99.90;;;;;;5042684;28;20036;-45
2023/09/04 03:51:33;;;;;;;3.20;2.90;;;11.30;99.90;;;;;;5024724;28;20044;-46
2023/09/04 03:54:02;;;;;;;3.40;3.03;;;11.30;99.90;;;;;;5023877;28;20045;-46
2023/09/04 03:56:28;;;;;;;3.83;3.40;;;11.40;99.90;;;;;;5042288;28;20551;-46
2023/09/04 03:58:54;;;;;;;3.50;2.42;;;11.30;99.90;;;;;;5042089;28;20102;-46
2023/09/04 04:01:22;;;;;;;3.03;2.33;;;11.30;99.90;;;;;;5042471;28;20481;-47
2023/09/04 04:03:48;;;;;;;2.65;2.40;;;11.30;99.90;;;;;;5025624;28;20519;-45
2023/09/04 04:06:14;;;;;;;3.33;3.00;;;11.30;99.90;;;;;;5027184;28;20134;-46
2023/09/04 04:08:40;;;;;;;2.30;1.35;;;11.30;99.90;;;;;;5011708;28;20101;-47
2023/09/04 04:11:06;;;;;;;2.20;1.90;;;11.30;99.90;;;;;;5023137;28;20123;-45
2023/09/04 04:13:32;;;;;;;2.35;1.80;;;11.30;99.90;;;;;;5045546;28;20045;-46
2023/09/04 04:16:01;;;;;;;5.43;2.95;;;11.20;99.90;;;;;;5045838;28;20386;-46
2023/09/04 04:18:27;;;;;;;4.38;3.17;;;11.20;99.90;;;;;;5046188;28;20567;-46
2023/09/04 04:20:53;;;;;;;3.78;3.47;;;11.20;99.90;;;;;;5028290;28;20157;-47
2023/09/04 04:23:19;;;;;;;7.28;3.60;;;11.20;99.90;;;;;;5045459;28;20032;-46
2023/09/04 04:25:44;;;;;;;3.63;2.70;;;11.20;99.90;;;;;;5046051;28;20151;-45
2023/09/04 04:28:10;;;;;;;5.15;3.40;;;11.20;99.90;;;;;;5045829;28;20049;-46
2023/09/04 04:30:36;;;;;;;3.95;3.00;;;11.20;99.90;;;;;;5046282;28;20055;-46
2023/09/04 04:33:02;;;;;;;3.63;1.70;;;11.20;99.90;;;;;;5027634;28;20048;-49
2023/09/04 04:35:28;;;;;;;5.93;3.63;;;11.20;99.90;;;;;;5027816;28;20048;-48
2023/09/04 04:37:53;;;;;;;4.65;3.55;;;11.20;99.90;;;;;;5027578;28;20041;-46
2023/09/04 04:40:23;;;;;;;3.53;2.75;;;11.10;99.90;;;;;;5045878;28;20201;-45
2023/09/04 04:42:48;;;;;;;3.47;2.25;;;11.10;99.90;;;;;;5044833;28;20124;-46
2023/09/04 04:45:14;;;;;;;6.25;2.22;;;11.20;99.90;;;;;;5045408;28;20040;-49
2023/09/04 04:47:40;;;;;;;2.38;2.00;;;11.20;99.90;;;;;;5020054;28;20049;-46
2023/09/04 04:50:08;;;;;;;3.90;2.05;;;11.20;99.90;;;;;;5045566;28;20032;-46
2023/09/04 04:52:34;;;;;;;5.00;3.00;;;11.20;99.90;;;;;;5027106;28;20049;-48
2023/09/04 04:55:00;;;;;;;3.83;3.13;;;11.20;99.90;;;;;;5045701;28;20361;-45
2023/09/04 04:57:25;;;;;;;2.70;2.33;;;11.20;99.90;;;;;;5027106;28;20372;-45
2023/09/04 04:59:51;;;;;;;2.70;2.03;;;11.20;99.90;;;;;;5011018;28;20041;-48
2023/09/04 05:02:17;;;;;;;3.63;2.78;;;11.20;99.90;;;;;;5045074;28;20076;-46
2023/09/04 05:04:46;;;;;;;4.18;3.47;;;11.20;99.90;;;;;;5027516;28;20057;-46
2023/09/04 05:07:12;;;;;;;8.70;7.90;;;11.30;99.90;;;;;;5045334;28;20124;-45
2023/09/04 05:09:38;;;;;;;9.82;8.82;;;11.30;99.90;;;;;;5009953;28;20069;-49
2023/09/04 05:12:04;;;;;;;8.68;7.88;;;11.40;99.90;;;;;;5045386;28;20045;-47
2023/09/04 05:14:30;;;;;;;11.35;10.15;;;11.50;99.90;;;;;;5043009;28;20037;-46
2023/09/04 05:16:56;;;;;;;11.82;10.65;;;11.60;99.90;;;;;;5045456;28;20091;-45
2023/09/04 05:19:21;;;;;;;13.02;11.73;;;11.80;99.90;;;;;;5045082;28;20496;-47
2023/09/04 05:21:47;;;;;;;13.73;12.38;;;11.90;99.90;;;;;;5045214;28;20111;-46
2023/09/04 05:24:13;;;;;;;15.07;13.20;;;12.10;99.90;;;;;;5044620;28;20452;-47
2023/09/04 05:26:39;;;;;;;14.82;13.27;;;12.20;99.90;;;;;;5026572;28;20056;-46
2023/09/04 05:29:05;;;;;;;14.07;12.77;;;12.40;99.90;;;;;;5026650;28;20466;-45
2023/09/04 05:31:31;;;;;;;13.13;11.93;;;12.60;99.90;;;;;;5045033;28;20049;-47
2023/09/04 05:33:56;;;;;;;13.45;11.95;;;12.80;99.90;;;;;;5009408;28;20045;-45
2023/09/04 05:36:22;;;;;;;13.55;12.00;;;13.10;99.90;;;;;;5044494;28;20048;-46
2023/09/04 05:38:48;;;;;;;16.52;13.68;;;13.90;99.90;;;;;;5026601;28;20037;-46
2023/09/04 05:41:14;;;;;;;12.35;11.25;;;15.00;99.90;;;;;;5044402;28;20423;-49
2023/09/04 05:43:40;;;;;;;11.93;10.57;;;15.80;99.90;;;;;;5043701;28;20044;-46
2023/09/04 05:46:06;;;;;;;11.45;10.35;;;16.80;99.90;;;;;;5039850;28;20408;-47
2023/09/04 05:48:33;;;;;;;12.00;10.88;;;17.70;99.90;;;;;;5036910;28;20059;-49
2023/09/04 05:51:00;;;;;;;11.27;10.10;;;18.60;99.90;;;;;;5044327;28;20440;-46
2023/09/04 05:53:26;;;;;;;11.40;10.32;;;19.50;99.90;;;;;;5043757;28;20436;-51
2023/09/04 05:56:11;;;;;;;10.80;9.90;;;20.10;99.90;;;;;;5043863;28;20072;-48
2023/09/04 05:58:50;;;;;;;10.75;9.30;;;20.40;99.90;;;;;;5025582;28;20048;-49
2023/09/04 06:01:18;;;;;;;10.80;9.77;;;20.30;99.90;;;;;;5044010;28;20043;-47
2023/09/04 06:03:44;;;;;;;9.90;9.05;;;20.50;99.90;;;;;;5025723;28;20824;-47
2023/09/04 06:06:11;;;;;;;11.20;10.30;;;20.80;99.90;;;;;;5044084;28;20044;-49
2023/09/04 06:08:37;;;;;;;10.43;9.63;;;21.10;99.90;;;;;;5026017;28;20522;-47
2023/09/04 06:11:03;;;;;;;10.85;9.95;;;21.40;99.90;;;;;;5044035;28;20033;-50
2023/09/04 06:13:30;;;;;;;11.02;10.00;;;21.90;99.90;;;;;;5043285;28;20129;-48
2023/09/04 06:15:58;;;;;;;10.43;9.52;;;22.60;99.90;;;;;;5043956;28;20116;-46
2023/09/04 06:18:23;;;;;;;10.02;9.23;;;23.30;99.90;;;;;;5025944;28;20228;-47
2023/09/04 06:20:50;;;;;;;10.60;9.68;;;24.10;99.90;;;;;;5009096;28;20615;-51
2023/09/04 06:23:16;;;;;;;9.90;8.95;;;24.90;99.90;;;;;;5043234;28;20033;-46
2023/09/04 06:25:42;;;;;;;9.98;9.18;;;25.30;99.90;;;;;;5043688;28;20434;-47
2023/09/04 06:28:12;;;;;;;9.80;8.82;;;25.70;99.90;;;;;;5044052;28;20045;-48
2023/09/04 06:30:38;;;;;;;9.95;9.07;;;26.30;98.40;;;;;;5043244;28;20076;-47
2023/09/04 06:33:04;;;;;;;8.60;7.88;;;26.10;97.90;;;;;;5042428;28;20101;-49
2023/09/04 06:35:30;;;;;;;8.77;8.00;;;26.00;97.70;;;;;;5025018;28;20057;-50
2023/09/04 06:37:56;;;;;;;9.85;8.95;;;25.90;97.30;;;;;;5008811;28;20340;-47
2023/09/04 06:40:23;;;;;;;9.70;8.90;;;25.90;97.20;;;;;;5042736;28;20032;-50
2023/09/04 06:42:48;;;;;;;8.90;8.10;;;26.10;97.40;;;;;;5024091;28;20041;-50
2023/09/04 06:45:14;;;;;;;9.00;8.10;;;26.20;97.00;;;;;;5042381;28;20060;-48
2023/09/04 06:47:41;;;;;;;8.70;7.90;;;26.10;96.60;;;;;;5022907;28;20052;-48
2023/09/04 06:50:07;;;;;;;8.60;7.80;;;26.30;96.50;;;;;;5007945;28;20116;-49
2023/09/04 06:52:33;;;;;;;9.48;7.97;;;26.70;96.50;;;;;;5015800;28;20040;-47
2023/09/04 06:54:59;;;;;;;8.80;8.10;;;27.30;96.20;;;;;;5024614;28;20467;-47
2023/09/04 06:57:25;;;;;;;8.82;8.10;;;27.40;95.40;;;;;;5024727;28;20526;-49
2023/09/04 06:59:50;;;;;;;9.30;8.50;;;27.50;95.00;;;;;;5024079;28;20229;-47
2023/09/04 07:02:16;;;;;;;7.93;7.32;;;27.40;94.60;;;;;;5042038;28;20863;-49
2023/09/04 07:04:43;;;;;;;8.48;7.75;;;27.60;95.20;;;;;;5025038;28;20573;-47
2023/09/04 07:07:10;;;;;;;8.18;7.35;;;27.70;94.10;;;;;;5042679;28;20033;-47
2023/09/04 07:09:35;;;;;;;8.07;7.00;;;27.20;95.00;;;;;;5004925;28;20386;-48
2023/09/04 07:12:01;;;;;;;7.97;7.28;;;26.30;95.60;;;;;;5022585;28;20041;-46
2023/09/04 07:14:27;;;;;;;8.55;7.88;;;25.50;96.40;;;;;;5021453;28;20563;-48
2023/09/04 07:16:52;;;;;;;8.93;8.07;;;24.90;97.20;;;;;;5019758;28;20662;-48
2023/09/04 07:19:18;;;;;;;8.52;7.82;;;24.10;98.30;;;;;;5022744;28;20045;-48
2023/09/04 07:21:43;;;;;;;8.10;6.95;;;23.60;99.60;;;;;;5022156;28;20144;-47
2023/09/04 07:24:09;;;;;;;8.45;7.63;;;23.50;99.90;;;;;;5019514;28;20099;-47
2023/09/04 07:26:35;;;;;;;7.10;6.43;;;23.40;99.90;;;;;;5018807;28;20243;-49
2023/09/04 07:29:00;;;;;;;7.55;6.85;;;23.20;99.90;;;;;;5017897;28;20113;-50
2023/09/04 07:31:26;;;;;;;8.32;7.63;;;23.30;99.90;;;;;;5018063;28;20448;-51
2023/09/04 07:33:52;;;;;;;8.10;7.30;;;23.20;99.90;;;;;;5018031;28;20041;-50
2023/09/04 07:36:17;;;;;;;8.02;7.38;;;23.10;99.90;;;;;;5019794;28;20111;-46
2023/09/04 07:38:45;;;;;;;7.82;7.03;;;23.00;99.90;;;;;;5022910;28;20528;-48
2023/09/04 07:41:11;;;;;;;8.32;6.97;;;23.00;99.90;;;;;;5024666;28;20666;-49
2023/09/04 07:43:37;;;;;;;8.70;7.28;;;23.10;99.90;;;;;;5022906;28;20111;-50
2023/09/04 07:46:03;;;;;;;7.95;7.35;;;23.10;99.90;;;;;;5020299;28;20602;-48
2023/09/04 07:48:29;;;;;;;7.82;7.03;;;23.00;99.90;;;;;;5021897;28;20041;-50
2023/09/04 07:50:56;;;;;;;6.95;5.70;;;23.10;99.90;;;;;;5024007;28;20049;-50
2023/09/04 07:53:23;;;;;;;6.53;5.82;;;22.80;99.90;;;;;;5021938;28;20041;-49
2023/09/04 07:55:49;;;;;;;7.60;5.93;;;22.80;99.90;;;;;;5024087;28;20099;-47
2023/09/04 07:58:15;;;;;;;6.93;5.75;;;22.70;99.90;;;;;;5023382;28;20057;-50
2023/09/04 08:00:46;;;;;;;6.88;6.28;;;22.70;99.90;;;;;;5023720;28;20582;-51
2023/09/04 08:03:12;;;;;;;6.63;6.03;;;22.40;99.90;;;;;;5023054;28;20033;-50
2023/09/04 08:05:38;;;;;;;6.93;6.25;;;22.50;99.90;;;;;;5023158;28;20044;-50
2023/09/04 08:08:08;;;;;;;9.15;6.65;;;22.60;99.90;;;;;;5007454;28;20091;-47
2023/09/04 08:10:34;;;;;;;7.20;6.38;;;22.70;99.90;;;;;;5036276;28;20535;-50
2023/09/04 08:13:00;;;;;;;7.13;6.43;;;22.60;99.90;;;;;;5026041;28;20049;-50
2023/09/04 08:15:25;;;;;;;7.30;6.00;;;22.60;99.90;;;;;;5044786;28;20037;-50
2023/09/04 08:17:51;;;;;;;7.95;6.03;;;22.60;99.90;;;;;;5026486;28;20345;-51
2023/09/04 08:20:17;;;;;;;7.20;5.70;;;22.60;99.90;;;;;;5026850;28;20047;-50
2023/09/04 08:22:43;;;;;;;6.47;5.88;;;22.70;99.90;;;;;;5044772;28;20075;-50
2023/09/04 08:25:08;;;;;;;8.27;5.68;;;22.60;99.90;;;;;;5027010;28;20459;-51
2023/09/04 08:27:37;;;;;;;6.50;5.35;;;22.60;99.90;;;;;;5045227;28;20137;-49
2023/09/04 08:30:03;;;;;;;5.82;5.15;;;22.70;99.90;;;;;;5027109;28;20059;-50
2023/09/04 08:32:29;;;;;;;5.90;5.30;;;22.80;99.90;;;;;;5044203;28;20467;-49
2023/09/04 08:34:55;;;;;;;6.15;5.60;;;22.80;99.90;;;;;;5044822;28;20053;-50
2023/09/04 08:37:20;;;;;;;5.65;5.15;;;22.80;99.90;;;;;;5045051;28;20040;-51
2023/09/04 08:39:46;;;;;;;8.25;5.78;;;22.90;99.90;;;;;;5044915;28;20477;-51
2023/09/04 08:42:12;;;;;;;7.57;4.68;;;22.90;99.90;;;;;;5044029;28;20067;-51
2023/09/04 08:44:39;;;;;;;5.10;4.57;;;22.90;99.90;;;;;;5026724;28;20041;-48
2023/09/04 08:47:06;;;;;;;9.13;4.10;;;23.00;99.90;;;;;;5036110;28;20091;-49
2023/09/04 08:49:32;;;;;;;4.78;4.20;;;23.00;99.90;;;;;;5044618;28;20048;-50
2023/09/04 08:52:00;;;;;;;5.00;4.20;;;23.00;99.90;;;;;;5043902;28;20036;-46
2023/09/04 08:54:26;;;;;;;5.43;4.10;;;22.90;99.90;;;;;;5026359;28;20461;-47
2023/09/04 08:56:51;;;;;;;4.30;3.90;;;22.80;99.90;;;;;;5044436;28;20056;-50
2023/09/04 08:59:17;;;;;;;4.93;4.10;;;22.80;99.90;;;;;;5043978;28;20407;-47
2023/09/04 09:01:43;;;;;;;5.15;4.30;;;22.80;99.90;;;;;;5026422;28;20110;-49
2023/09/04 09:04:10;;;;;;;5.22;4.40;;;22.80;99.90;;;;;;5043362;28;20433;-49
2023/09/04 09:06:36;;;;;;;3.65;3.30;;;22.80;99.90;;;;;;5044157;28;20140;-47
2023/09/04 09:09:03;;;;;;;5.45;3.90;;;22.90;99.90;;;;;;5043923;28;20052;-48
2023/09/04 09:11:29;;;;;;;3.60;3.13;;;23.00;99.90;;;;;;5043948;28;20080;-48
2023/09/04 09:13:54;;;;;;;4.40;3.50;;;23.00;99.90;;;;;;5043031;28;20515;-48
2023/09/04 09:16:21;;;;;;;3.80;3.40;;;23.10;99.90;;;;;;5044123;28;20075;-47
2023/09/04 09:18:48;;;;;;;4.25;3.45;;;23.10;99.90;;;;;;5025848;28;20076;-48
2023/09/04 09:21:25;;;;;;;4.28;3.58;;;23.20;99.90;;;;;;5043822;28;20091;-47
2023/09/04 09:24:10;;;;;;;7.50;3.25;;;23.20;99.90;;;;;;5008755;28;20037;-49
2023/09/04 09:26:39;;;;;;;3.50;3.20;;;23.20;99.90;;;;;;5026173;28;20124;-47
2023/09/04 09:29:08;;;;;;;4.65;3.08;;;23.30;99.90;;;;;;5043588;28;20155;-48
2023/09/04 09:31:35;;;;;;;4.00;2.90;;;23.30;99.90;;;;;;5043999;28;20041;-49
2023/09/04 09:34:02;;;;;;;4.38;2.90;;;23.30;99.90;;;;;;5025068;28;20078;-48
2023/09/04 09:36:28;;;;;;;4.60;3.03;;;23.50;99.90;;;;;;5025617;28;20075;-48
2023/09/04 09:38:54;;;;;;;5.45;3.35;;;23.60;99.90;;;;;;5043392;28;20502;-50
2023/09/04 09:41:20;;;;;;;4.00;2.70;;;23.70;99.90;;;;;;5025902;28;20087;-48
2023/09/04 09:43:46;;;;;;;3.92;2.88;;;23.70;99.90;;;;;;5042813;28;20044;-49
2023/09/04 09:46:16;;;;;;;4.55;2.80;;;23.70;99.90;;;;;;5005490;28;20041;-48
2023/09/04 09:48:43;;;;;;;4.43;2.70;;;23.70;99.90;;;;;;5041591;28;20467;-47
2023/09/04 09:51:10;;;;;;;3.20;2.53;;;23.80;99.90;;;;;;5043249;28;20204;-48
2023/09/04 09:53:46;;;;;;;3.42;2.72;;;23.90;99.90;;;;;;5042611;28;20622;-47
2023/09/04 09:56:12;;;;;;;3.33;3.03;;;23.90;99.90;;;;;;5025198;28;20449;-48
2023/09/04 09:58:40;;;;;;;5.47;2.80;;;23.90;99.90;;;;;;5043086;28;20160;-49
2023/09/04 10:01:08;;;;;;;3.25;2.70;;;23.80;99.80;;;;;;5024702;28;20094;-50
2023/09/04 10:03:38;;;;;;;3.92;2.72;;;23.90;99.90;;;;;;5042933;28;20037;-48
2023/09/04 10:06:05;;;;;;;4.07;2.67;;;23.90;99.90;;;;;;5043208;28;20091;-47
2023/09/04 10:08:36;;;;;;;5.25;2.95;;;23.90;99.80;;;;;;5042974;28;20125;-51
2023/09/04 10:11:06;;;;;;;4.25;3.47;;;23.90;99.90;;;;;;5008745;28;20123;-49
2023/09/04 10:13:37;;;;;;;4.05;2.83;;;23.90;99.40;;;;;;5042633;28;20503;-50
2023/09/04 10:16:09;;;;;;;4.70;2.63;;;23.80;99.60;;;;;;5043045;28;20049;-51
2023/09/04 10:18:39;;;;;;;4.05;3.17;;;23.90;99.90;;;;;;5028498;28;20049;-47
2023/09/04 10:21:08;;;;;;;4.28;3.40;;;23.80;99.90;;;;;;5025104;28;20484;-50
2023/09/04 10:23:43;;;;;;;2.92;2.50;;;23.80;99.90;;;;;;5042590;28;20052;-51
2023/09/04 10:26:15;;;;;;;4.18;2.65;;;23.80;99.90;;;;;;5025098;28;20045;-51
2023/09/04 10:28:47;;;;;;;4.30;3.22;;;23.90;99.90;;;;;;5042917;28;20506;-48
2023/09/04 10:31:14;;;;;;;3.05;2.53;;;24.00;99.90;;;;;;5041005;28;20049;-50
2023/09/04 10:33:40;;;;;;;4.50;3.13;;;24.10;99.90;;;;;;5024282;28;20079;-50
2023/09/04 10:36:07;;;;;;;5.10;2.80;;;24.10;98.20;;;;;;5042537;28;20045;-50
2023/09/04 10:38:35;;;;;;;4.65;3.20;;;24.10;99.30;;;;;;5043033;28;20124;-51
2023/09/04 10:41:00;;;;;;;4.85;2.78;;;24.20;99.90;;;;;;5042454;28;20526;-47
2023/09/04 10:43:38;;;;;;;3.35;2.58;;;24.30;99.70;;;;;;5023847;28;20068;-51
2023/09/04 10:46:13;;;;;;;2.60;2.40;;;24.40;99.50;;;;;;5020262;28;20053;-51
2023/09/04 10:48:46;;;;;;;4.20;2.53;;;24.50;99.90;;;;;;5035770;28;20045;-50
2023/09/04 10:51:29;;;;;;;3.63;2.25;;;24.60;99.60;;;;;;5037983;28;20076;-49
2023/09/04 10:53:56;;;;;;;3.35;3.05;;;24.60;97.60;;;;;;5029589;28;20779;-48
2023/09/04 10:56:21;;;;;;;4.00;2.97;;;24.60;98.30;;;;;;5042331;28;20385;-49
2023/09/04 10:59:04;;;;;;;7.97;3.42;;;24.50;99.00;;;;;;5042287;28;20099;-47
2023/09/04 11:01:37;;;;;;;6.57;3.17;;;24.50;99.10;;;;;;5042223;28;20049;-48
2023/09/04 11:04:08;;;;;;;3.65;2.90;;;24.50;99.00;;;;;;5007884;28;20363;-50
2023/09/04 11:06:36;;;;;;;5.35;2.95;;;24.50;98.80;;;;;;5042073;28;20049;-47
2023/09/04 11:09:03;;;;;;;19.30;4.43;;;24.50;98.70;;;;;;5041904;28;20080;-50
2023/09/04 11:11:29;;;;;;;3.58;3.00;;;24.40;98.50;;;;;;5041825;28;20384;-50
2023/09/04 11:14:11;;;;;;;5.75;3.35;;;24.30;98.40;;;;;;5022633;28;20110;-49
2023/09/04 11:16:41;;;;;;;5.63;3.38;;;24.30;98.70;;;;;;5042075;28;20072;-51
2023/09/04 11:19:13;;;;;;;4.05;2.92;;;24.20;98.80;;;;;;5041914;28;20094;-51
2023/09/04 11:21:42;;;;;;;5.35;2.85;;;24.20;99.20;;;;;;5041376;28;20128;-51
2023/09/04 11:24:08;;;;;;;4.53;3.92;;;24.30;98.80;;;;;;5042168;28;20548;-49
2023/09/04 11:26:34;;;;;;;5.53;3.00;;;24.20;98.80;;;;;;5023975;28;20131;-48
2023/09/04 11:29:02;;;;;;;4.65;2.35;;;24.30;98.70;;;;;;5007496;28;20087;-48
2023/09/04 11:31:29;;;;;;;3.85;2.88;;;24.40;98.10;;;;;;5042018;28;20041;-51
2023/09/04 11:33:55;;;;;;;4.00;2.78;;;24.40;98.40;;;;;;5041586;28;20048;-50
2023/09/04 11:36:22;;;;;;;4.13;2.85;;;24.50;98.30;;;;;;5023751;28;20419;-49
2023/09/04 11:38:51;;;;;;;5.88;3.50;;;24.50;98.80;;;;;;5041664;28;20502;-52
2023/09/04 11:41:18;;;;;;;4.78;3.20;;;24.60;98.70;;;;;;5023989;28;20045;-50
2023/09/04 11:43:44;;;;;;;3.67;3.22;;;24.70;98.70;;;;;;5022829;28;20131;-49
2023/09/04 11:46:11;;;;;;;3.67;3.10;;;24.60;98.50;;;;;;5036262;28;20056;-52
2023/09/04 11:48:37;;;;;;;4.75;3.42;;;24.60;98.40;;;;;;5039212;28;20488;-50
2023/09/04 11:51:09;;;;;;;4.45;3.40;;;24.70;98.30;;;;;;5041593;28;20037;-51
2023/09/04 11:53:35;;;;;;;3.47;2.83;;;24.70;98.60;;;;;;5041400;28;20371;-50
2023/09/04 11:56:03;;;;;;;3.85;2.53;;;24.70;98.40;;;;;;5041926;28;20041;-49
2023/09/04 11:58:29;;;;;;;3.53;3.00;;;24.70;99.20;;;;;;5041415;28;20404;-51
2023/09/04 12:00:55;;;;;;;4.45;2.75;;;24.80;98.50;;;;;;5041847;28;20041;-50
2023/09/04 12:03:21;;;;;;;4.15;2.80;;;24.80;98.30;;;;;;5041370;28;20043;-47
2023/09/04 12:05:51;;;;;;;5.93;3.30;;;24.90;98.40;;;;;;5023702;28;20044;-50
2023/09/04 12:08:17;;;;;;;3.20;2.90;;;24.90;98.30;;;;;;5023008;28;20041;-49
2023/09/04 12:10:43;;;;;;;4.05;2.97;;;25.00;98.70;;;;;;5006764;28;20094;-48
2023/09/04 12:13:10;;;;;;;3.45;2.47;;;25.10;98.90;;;;;;5005873;28;20045;-49
2023/09/04 12:15:38;;;;;;;2.78;2.25;;;25.10;98.40;;;;;;5041601;28;20049;-51
2023/09/04 12:18:05;;;;;;;3.75;2.30;;;25.10;98.90;;;;;;5023145;28;20112;-51
2023/09/04 12:20:44;;;;;;;4.15;2.55;;;25.10;98.40;;;;;;5023069;28;20488;-48
2023/09/04 12:23:10;;;;;;;4.30;2.45;;;25.10;98.80;;;;;;5027989;28;20036;-49
2023/09/04 12:25:44;;;;;;;3.40;2.42;;;25.10;99.70;;;;;;5045375;28;20045;-48
2023/09/04 12:28:12;;;;;;;6.03;3.00;;;25.10;98.20;;;;;;5045120;28;20028;-51
2023/09/04 12:30:40;;;;;;;5.60;3.00;;;25.10;97.90;;;;;;5026607;28;20071;-49
2023/09/04 12:33:10;;;;;;;5.20;2.80;;;25.10;97.60;;;;;;5044441;28;20048;-50
2023/09/04 12:35:35;;;;;;;4.05;2.22;;;25.00;97.50;;;;;;5045479;28;20079;-50
2023/09/04 12:38:01;;;;;;;5.53;2.80;;;25.00;98.10;;;;;;5044438;28;20140;-48
2023/09/04 12:40:26;;;;;;;4.18;2.60;;;25.00;97.40;;;;;;5044947;28;20062;-51
2023/09/04 12:42:52;;;;;;;3.75;2.67;;;25.00;97.50;;;;;;5044200;28;20041;-51
2023/09/04 12:45:18;;;;;;;2.90;2.40;;;25.00;97.80;;;;;;5026501;28;20096;-50